Time;durP1;ratioP1;P1;durP2;ratioP2;P2;SDS_P1;SDS_P2;PMS_P1;PMS_P2;Temp;Humidity;BMP_temperature;BMP_pressure;BME280_temperature;BME280_humidity;BME280_pressure;Samples;Min_cycle;Max_cycle;Signal;HPM_P1;HPM_P2
2023/03/09 00:00:40;;;;;;;65.35;35.80;;;4.20;99.90;;;;;;5055002;28;20474;-77
2023/03/09 00:03:15;;;;;;;65.28;35.30;;;4.20;99.90;;;;;;5054876;28;20027;-77
2023/03/09 00:05:52;;;;;;;68.40;38.35;;;4.20;99.90;;;;;;5054636;28;20037;-81
2023/03/09 00:08:18;;;;;;;85.18;45.10;;;4.10;99.90;;;;;;5053739;28;20063;-81
2023/03/09 00:10:43;;;;;;;69.10;38.45;;;4.10;99.90;;;;;;5054621;28;20487;-81
2023/03/09 00:13:09;;;;;;;74.40;40.58;;;4.10;99.90;;;;;;5054490;28;20364;-79
2023/03/09 00:15:35;;;;;;;79.85;40.30;;;4.10;99.90;;;;;;5054196;28;20104;-79
2023/03/09 00:18:01;;;;;;;66.80;36.35;;;4.10;99.90;;;;;;5053738;28;20025;-78
2023/03/09 00:20:27;;;;;;;68.30;35.78;;;4.10;99.90;;;;;;5054278;28;20027;-79
2023/03/09 00:22:54;;;;;;;67.07;36.20;;;4.10;99.90;;;;;;5053467;28;20024;-81
2023/03/09 00:25:21;;;;;;;66.43;34.67;;;4.00;99.90;;;;;;5053086;28;20032;-81
2023/03/09 00:27:49;;;;;;;74.47;43.70;;;4.00;99.90;;;;;;5053256;28;20067;-79
2023/03/09 00:30:16;;;;;;;65.78;35.97;;;4.00;99.90;;;;;;5053834;28;20025;-82
2023/03/09 00:32:41;;;;;;;62.47;32.28;;;4.00;99.90;;;;;;5054200;28;20025;-77
2023/03/09 00:35:08;;;;;;;62.17;31.90;;;4.00;99.90;;;;;;5054614;28;20039;-77
2023/03/09 00:37:34;;;;;;;61.10;33.33;;;4.00;99.90;;;;;;5054444;28;20036;-77
2023/03/09 00:40:00;;;;;;;57.30;30.60;;;4.00;99.90;;;;;;5054210;28;20025;-79
2023/03/09 00:42:26;;;;;;;55.60;30.45;;;4.00;99.90;;;;;;5052569;28;20457;-79
2023/03/09 00:44:52;;;;;;;58.22;30.90;;;4.10;99.90;;;;;;5052972;28;20055;-77
2023/03/09 00:47:18;;;;;;;56.97;28.95;;;4.20;99.90;;;;;;5053517;28;20426;-79
2023/03/09 00:49:45;;;;;;;59.88;32.95;;;4.20;99.90;;;;;;5053817;28;20035;-77
2023/03/09 00:52:10;;;;;;;54.53;31.67;;;4.20;99.90;;;;;;5054170;28;20021;-79
2023/03/09 00:54:36;;;;;;;55.70;30.85;;;4.30;99.90;;;;;;5053907;28;20025;-77
2023/03/09 00:57:02;;;;;;;52.30;29.85;;;4.30;99.90;;;;;;5052589;28;20104;-81
2023/03/09 00:59:28;;;;;;;57.13;30.00;;;4.30;99.90;;;;;;5052785;28;20489;-78
2023/03/09 01:01:54;;;;;;;52.17;30.30;;;4.30;99.90;;;;;;5052302;28;20024;-85
2023/03/09 01:04:19;;;;;;;63.10;33.17;;;4.40;99.90;;;;;;5053287;28;20386;-85
2023/03/09 01:06:45;;;;;;;61.33;31.50;;;4.40;99.90;;;;;;5051660;28;20483;-81
2023/03/09 01:09:11;;;;;;;61.83;32.10;;;4.40;99.90;;;;;;5051504;28;20021;-81
2023/03/09 01:11:37;;;;;;;56.55;31.55;;;4.50;99.90;;;;;;5051808;28;20025;-82
2023/03/09 01:14:03;;;;;;;62.13;32.22;;;4.50;99.90;;;;;;5053312;28;20048;-83
2023/03/09 01:16:29;;;;;;;57.08;30.42;;;4.50;99.90;;;;;;5051650;28;20056;-83
2023/03/09 01:18:54;;;;;;;69.82;32.97;;;4.50;99.90;;;;;;5053037;28;20017;-83
2023/03/09 01:21:20;;;;;;;61.10;32.97;;;4.50;99.90;;;;;;5053267;28;20021;-79
2023/03/09 01:23:49;;;;;;;71.63;34.17;;;4.50;99.90;;;;;;5053070;28;20063;-77
2023/03/09 01:26:14;;;;;;;64.30;33.83;;;4.50;99.90;;;;;;5052995;28;20037;-78
2023/03/09 01:28:40;;;;;;;61.67;33.15;;;4.60;99.90;;;;;;5051920;28;20024;-80
2023/03/09 01:31:13;;;;;;;72.85;36.67;;;4.60;99.90;;;;;;5053470;28;20049;-78
2023/03/09 01:33:39;;;;;;;62.63;33.55;;;4.60;99.90;;;;;;5053313;28;20021;-79
2023/03/09 01:36:11;;;;;;;74.97;35.20;;;4.70;99.90;;;;;;5051834;28;20368;-78
2023/03/09 01:38:36;;;;;;;77.10;36.20;;;4.70;99.90;;;;;;5053200;28;20071;-79
2023/03/09 01:41:03;;;;;;;66.07;35.47;;;4.70;99.90;;;;;;5051848;28;20025;-78
2023/03/09 01:43:39;;;;;;;73.30;36.10;;;4.70;99.90;;;;;;5051833;28;20112;-79
2023/03/09 01:46:36;;;;;;;69.22;34.75;;;4.80;99.90;;;;;;5052824;28;20037;-79
2023/03/09 01:49:26;;;;;;;68.45;35.78;;;4.80;99.90;;;;;;5052382;28;20405;-79
2023/03/09 01:52:07;;;;;;;60.20;32.08;;;4.80;99.90;;;;;;5051897;28;20487;-79
2023/03/09 01:54:43;;;;;;;66.65;31.00;;;4.80;99.90;;;;;;5051741;28;20021;-80
2023/03/09 01:57:14;;;;;;;57.58;29.50;;;4.90;99.90;;;;;;5051750;28;20027;-80
2023/03/09 01:59:42;;;;;;;60.00;29.02;;;4.90;99.90;;;;;;5055301;28;20048;-79
2023/03/09 02:02:09;;;;;;;60.15;31.02;;;4.90;99.90;;;;;;5055176;28;20013;-78
2023/03/09 02:04:43;;;;;;;53.58;26.23;;;4.90;99.90;;;;;;5055660;28;20021;-80
2023/03/09 02:07:11;;;;;;;50.97;24.98;;;5.00;99.90;;;;;;5056948;28;20033;-79
2023/03/09 02:09:46;;;;;;;50.90;26.60;;;5.00;99.90;;;;;;5055776;28;20112;-79
2023/03/09 02:12:15;;;;;;;54.47;25.05;;;5.00;99.90;;;;;;5055999;28;20516;-80
2023/03/09 02:14:41;;;;;;;48.97;25.60;;;5.00;99.90;;;;;;5056109;28;20108;-80
2023/03/09 02:17:10;;;;;;;49.92;26.80;;;5.00;99.90;;;;;;5055754;28;20111;-78
2023/03/09 02:19:52;;;;;;;50.28;26.77;;;5.00;99.90;;;;;;5072154;28;20028;-82
2023/03/09 02:22:18;;;;;;;54.60;26.98;;;5.00;99.90;;;;;;5060351;28;20381;-80
2023/03/09 02:25:09;;;;;;;49.58;24.48;;;5.00;99.90;;;;;;5056655;28;20032;-80
2023/03/09 02:27:35;;;;;;;47.92;26.30;;;5.00;99.90;;;;;;5055554;28;20441;-81
2023/03/09 02:30:02;;;;;;;52.50;27.17;;;5.00;99.90;;;;;;5056460;28;20021;-81
2023/03/09 02:32:30;;;;;;;53.15;28.15;;;5.00;99.90;;;;;;5056310;28;20387;-82
2023/03/09 02:34:56;;;;;;;58.67;27.58;;;5.00;99.90;;;;;;5056236;28;20139;-81
2023/03/09 02:37:28;;;;;;;52.53;26.13;;;5.00;99.90;;;;;;5058714;28;21652;-80
2023/03/09 02:39:59;;;;;;;;;;;5.00;99.90;;;;;;5076739;28;20021;-80
2023/03/09 02:42:26;;;;;;;47.20;23.85;;;5.00;99.90;;;;;;5075284;28;20027;-80
2023/03/09 02:44:53;;;;;;;43.58;24.17;;;5.00;99.90;;;;;;5074883;28;20436;-81
2023/03/09 02:47:21;;;;;;;57.38;28.60;;;5.00;99.90;;;;;;5075985;28;20076;-81
2023/03/09 02:49:47;;;;;;;59.40;27.88;;;5.00;99.90;;;;;;5076027;28;20024;-81
2023/03/09 02:52:13;;;;;;;59.10;27.60;;;5.00;99.90;;;;;;5075995;28;20474;-79
2023/03/09 02:54:39;;;;;;;67.32;28.67;;;5.00;99.90;;;;;;5075977;28;20378;-80
2023/03/09 02:57:05;;;;;;;61.95;29.45;;;5.00;99.90;;;;;;5076000;28;20116;-80
2023/03/09 02:59:31;;;;;;;57.55;26.35;;;5.00;99.90;;;;;;5076034;28;20029;-81
2023/03/09 03:01:57;;;;;;;54.60;27.00;;;5.00;99.90;;;;;;5075788;28;20074;-80
2023/03/09 03:04:23;;;;;;;52.85;26.40;;;5.00;99.90;;;;;;5075938;28;20028;-79
2023/03/09 03:06:48;;;;;;;51.92;26.83;;;5.00;99.90;;;;;;5074802;28;20111;-80
2023/03/09 03:09:14;;;;;;;51.75;25.42;;;5.00;99.90;;;;;;5075364;28;20025;-79
2023/03/09 03:11:39;;;;;;;59.60;27.83;;;5.00;99.90;;;;;;5075173;28;20099;-80
2023/03/09 03:14:05;;;;;;;49.25;24.33;;;5.00;99.90;;;;;;5075758;28;20016;-80
2023/03/09 03:16:34;;;;;;;47.67;24.60;;;5.00;99.90;;;;;;5074431;28;20056;-80
2023/03/09 03:18:59;;;;;;;59.55;29.70;;;5.00;99.90;;;;;;5074404;28;20028;-79
2023/03/09 03:21:25;;;;;;;54.70;25.38;;;5.00;99.90;;;;;;5075825;28;20020;-79
2023/03/09 03:23:51;;;;;;;42.05;21.55;;;5.00;99.90;;;;;;5074553;28;20059;-78
2023/03/09 03:26:16;;;;;;;47.80;23.77;;;5.00;99.90;;;;;;5075463;28;20039;-78
2023/03/09 03:28:42;;;;;;;51.60;25.13;;;5.00;99.90;;;;;;5074231;28;20020;-78
2023/03/09 03:31:09;;;;;;;47.05;25.83;;;5.00;99.90;;;;;;5074200;28;20025;-80
2023/03/09 03:33:34;;;;;;;52.83;26.70;;;5.00;99.90;;;;;;5074093;28;20020;-78
2023/03/09 03:36:00;;;;;;;55.50;26.85;;;5.00;99.90;;;;;;5074396;28;20027;-80
2023/03/09 03:38:25;;;;;;;54.63;27.27;;;5.00;99.90;;;;;;5075294;28;20104;-80
2023/03/09 03:40:51;;;;;;;56.10;27.70;;;5.00;99.90;;;;;;5073975;28;20547;-78
2023/03/09 03:43:17;;;;;;;66.43;29.92;;;5.00;99.90;;;;;;5074065;28;20031;-78
2023/03/09 03:45:42;;;;;;;68.35;28.67;;;5.00;99.90;;;;;;5074965;28;20024;-78
2023/03/09 03:48:08;;;;;;;61.90;29.58;;;5.00;99.90;;;;;;5075063;28;20494;-78
2023/03/09 03:50:34;;;;;;;58.22;27.63;;;5.00;99.90;;;;;;5074177;28;20549;-79
2023/03/09 03:53:00;;;;;;;52.20;25.80;;;5.00;99.90;;;;;;5073921;28;20489;-80
2023/03/09 03:55:26;;;;;;;56.75;27.83;;;5.00;99.90;;;;;;5075152;28;20378;-80
2023/03/09 03:57:53;;;;;;;51.35;26.67;;;5.00;99.90;;;;;;5075173;28;20094;-79
2023/03/09 04:00:19;;;;;;;53.47;25.80;;;5.00;99.90;;;;;;5074907;28;20398;-80
2023/03/09 04:02:45;;;;;;;58.05;28.50;;;5.00;99.90;;;;;;5074785;28;20030;-80
2023/03/09 04:05:10;;;;;;;50.65;25.52;;;5.00;99.90;;;;;;5074686;28;20466;-79
2023/03/09 04:07:36;;;;;;;50.63;24.98;;;5.00;99.90;;;;;;5074549;28;20046;-81
2023/03/09 04:10:03;;;;;;;53.20;27.20;;;5.00;99.90;;;;;;5073726;28;20021;-79
2023/03/09 04:12:29;;;;;;;50.03;27.45;;;5.10;99.90;;;;;;5073179;28;20111;-82
2023/03/09 04:14:54;;;;;;;48.95;26.42;;;5.00;99.90;;;;;;5073593;28;20055;-80
2023/03/09 04:17:20;;;;;;;52.67;26.58;;;5.10;99.90;;;;;;5074393;28;20154;-82
2023/03/09 04:19:46;;;;;;;51.75;25.75;;;5.10;99.90;;;;;;5074511;28;20493;-80
2023/03/09 04:22:11;;;;;;;50.92;25.98;;;5.10;99.90;;;;;;5073872;28;20020;-78
2023/03/09 04:24:37;;;;;;;50.60;26.92;;;5.10;99.90;;;;;;5074415;28;20382;-78
2023/03/09 04:27:03;;;;;;;53.05;26.88;;;5.10;99.90;;;;;;5074678;28;20405;-80
2023/03/09 04:29:28;;;;;;;50.25;26.23;;;5.10;99.90;;;;;;5072961;28;20547;-81
2023/03/09 04:31:54;;;;;;;47.30;25.00;;;5.10;99.90;;;;;;5072874;28;20051;-78
2023/03/09 04:34:20;;;;;;;51.20;26.52;;;5.10;99.90;;;;;;5074157;28;20033;-81
2023/03/09 04:36:45;;;;;;;55.50;26.73;;;5.10;99.90;;;;;;5072763;28;20461;-79
2023/03/09 04:39:11;;;;;;;52.90;26.00;;;5.10;99.90;;;;;;5074495;28;20031;-81
2023/03/09 04:41:37;;;;;;;49.65;25.83;;;5.10;99.90;;;;;;5072863;28;20021;-79
2023/03/09 04:44:03;;;;;;;57.13;27.60;;;5.10;99.90;;;;;;5072679;28;20467;-81
2023/03/09 04:46:28;;;;;;;53.13;25.80;;;5.10;99.90;;;;;;5072749;28;20060;-79
2023/03/09 04:48:54;;;;;;;60.92;30.42;;;5.10;99.90;;;;;;5073901;28;20059;-79
2023/03/09 04:51:20;;;;;;;56.42;28.15;;;5.10;99.90;;;;;;5073788;28;20028;-78
2023/03/09 04:53:46;;;;;;;54.95;28.05;;;5.20;99.90;;;;;;5072542;28;20067;-78
2023/03/09 04:56:12;;;;;;;55.33;26.95;;;5.10;99.90;;;;;;5073613;28;20016;-79
2023/03/09 04:58:37;;;;;;;63.38;29.75;;;5.10;99.90;;;;;;5073965;28;20021;-80
2023/03/09 05:01:03;;;;;;;48.97;25.52;;;5.10;99.90;;;;;;5073658;28;20016;-80
2023/03/09 05:03:29;;;;;;;53.90;26.08;;;5.20;99.90;;;;;;5073723;28;20027;-78
2023/03/09 05:05:55;;;;;;;51.50;26.17;;;5.20;99.90;;;;;;5073417;28;20094;-80
2023/03/09 05:08:20;;;;;;;50.83;27.77;;;5.20;99.90;;;;;;5072302;28;20499;-79
2023/03/09 05:10:46;;;;;;;60.78;27.45;;;5.20;99.90;;;;;;5072467;28;20119;-80
2023/03/09 05:13:12;;;;;;;50.45;25.52;;;5.20;99.90;;;;;;5073429;28;20029;-81
2023/03/09 05:15:41;;;;;;;54.70;25.73;;;5.20;99.90;;;;;;5072280;28;20064;-80
2023/03/09 05:18:08;;;;;;;53.72;25.45;;;5.20;99.90;;;;;;5073254;28;20066;-79
2023/03/09 05:20:34;;;;;;;55.50;28.13;;;5.20;99.90;;;;;;5072068;28;20355;-80
2023/03/09 05:23:01;;;;;;;53.95;26.63;;;5.20;99.90;;;;;;5072598;28;20205;-80
2023/03/09 05:25:26;;;;;;;53.30;25.67;;;5.20;99.90;;;;;;5071920;28;20115;-80
2023/03/09 05:27:52;;;;;;;49.58;25.45;;;5.20;99.90;;;;;;5072377;28;20115;-80
2023/03/09 05:30:19;;;;;;;46.97;25.98;;;5.20;99.90;;;;;;5072375;28;20017;-79
2023/03/09 05:32:45;;;;;;;53.00;25.05;;;5.20;99.90;;;;;;5072865;28;20020;-79
2023/03/09 05:35:11;;;;;;;54.08;26.13;;;5.20;99.90;;;;;;5073223;28;20017;-81
2023/03/09 05:37:37;;;;;;;51.10;25.70;;;5.20;99.90;;;;;;5071854;28;20172;-80
2023/03/09 05:40:05;;;;;;;48.95;26.77;;;5.30;99.90;;;;;;5072293;28;20016;-79
2023/03/09 05:42:32;;;;;;;57.58;26.50;;;5.30;99.90;;;;;;5073092;28;20021;-79
2023/03/09 05:44:59;;;;;;;55.65;28.05;;;5.30;99.90;;;;;;5073198;28;20360;-79
2023/03/09 05:47:25;;;;;;;49.45;25.65;;;5.30;99.90;;;;;;5071574;28;20517;-79
2023/03/09 05:49:50;;;;;;;51.47;27.92;;;5.30;99.90;;;;;;5071848;28;20020;-77
2023/03/09 05:52:16;;;;;;;48.08;25.73;;;5.30;99.90;;;;;;5071827;28;20518;-80
2023/03/09 05:54:41;;;;;;;45.60;26.27;;;5.30;99.90;;;;;;5072767;28;20028;-81
2023/03/09 05:57:09;;;;;;;66.78;31.98;;;5.40;99.90;;;;;;5072392;28;20028;-79
2023/03/09 05:59:34;;;;;;;63.17;30.27;;;5.40;99.90;;;;;;5033156;28;20024;-80
2023/03/09 06:02:00;;;;;;;64.75;33.30;;;5.40;99.90;;;;;;5032797;28;20475;-79
2023/03/09 06:04:26;;;;;;;56.10;29.27;;;5.40;99.90;;;;;;5031235;28;20026;-80
2023/03/09 06:06:51;;;;;;;50.63;26.08;;;5.40;99.90;;;;;;5031691;28;20509;-78
2023/03/09 06:09:17;;;;;;;51.08;28.27;;;5.40;99.90;;;;;;5031591;28;20084;-79
2023/03/09 06:11:42;;;;;;;53.47;28.67;;;5.50;99.90;;;;;;5051111;28;20071;-79
2023/03/09 06:14:09;;;;;;;56.97;29.17;;;5.50;99.90;;;;;;5051109;28;20058;-79
2023/03/09 06:16:34;;;;;;;57.10;30.15;;;5.50;99.90;;;;;;5052646;28;20017;-78
2023/03/09 06:19:00;;;;;;;52.35;30.52;;;5.50;99.90;;;;;;5052707;28;20029;-77
2023/03/09 06:21:26;;;;;;;51.67;28.73;;;5.50;99.90;;;;;;5052587;28;20086;-78
2023/03/09 06:23:54;;;;;;;49.55;28.02;;;5.60;99.90;;;;;;5053053;28;20395;-78
2023/03/09 06:26:20;;;;;;;58.60;30.08;;;5.60;99.90;;;;;;5051122;28;20075;-80
2023/03/09 06:28:46;;;;;;;54.35;29.25;;;5.60;99.90;;;;;;5056384;28;20406;-78
2023/03/09 06:31:14;;;;;;;50.08;26.70;;;5.60;99.90;;;;;;5060203;28;20031;-78
2023/03/09 06:33:40;;;;;;;50.33;26.55;;;5.60;99.90;;;;;;5062019;28;20017;-78
2023/03/09 06:36:07;;;;;;;52.88;28.52;;;5.60;99.90;;;;;;5058627;28;20021;-78
2023/03/09 06:38:33;;;;;;;59.63;29.95;;;5.60;99.90;;;;;;5057180;28;20490;-79
2023/03/09 06:40:58;;;;;;;59.83;29.92;;;5.70;99.90;;;;;;5058943;28;20020;-80
2023/03/09 06:43:24;;;;;;;55.15;30.88;;;5.70;99.90;;;;;;5071354;28;20538;-80
2023/03/09 06:45:50;;;;;;;61.05;30.95;;;5.70;99.90;;;;;;5069298;28;20494;-80
2023/03/09 06:48:15;;;;;;;78.72;40.25;;;5.70;99.90;;;;;;5053912;28;20128;-80
2023/03/09 06:50:41;;;;;;;76.50;40.40;;;5.80;99.90;;;;;;5055352;28;20495;-80
2023/03/09 06:53:07;;;;;;;70.55;38.05;;;5.80;99.90;;;;;;5054054;28;20017;-80
2023/03/09 06:55:33;;;;;;;84.05;45.20;;;5.80;99.90;;;;;;5053994;28;20032;-80
2023/03/09 06:57:58;;;;;;;94.43;48.30;;;5.90;99.90;;;;;;5054435;28;20371;-80
2023/03/09 07:00:24;;;;;;;110.93;57.88;;;5.90;99.90;;;;;;5052335;28;20025;-80
2023/03/09 07:02:50;;;;;;;94.93;52.83;;;5.90;99.90;;;;;;5051973;28;20032;-78
2023/03/09 07:05:15;;;;;;;88.55;44.53;;;5.90;99.90;;;;;;5052496;28;20035;-78
2023/03/09 07:07:42;;;;;;;88.72;45.78;;;5.90;99.90;;;;;;5053992;28;20074;-80
2023/03/09 07:10:10;;;;;;;84.47;42.50;;;6.00;99.90;;;;;;5052486;28;20025;-80
2023/03/09 07:12:35;;;;;;;112.07;57.33;;;6.00;99.90;;;;;;5052407;28;20021;-79
2023/03/09 07:15:01;;;;;;;109.00;54.20;;;6.10;99.90;;;;;;5055327;28;20021;-79
2023/03/09 07:17:27;;;;;;;119.07;60.60;;;6.10;99.90;;;;;;5053037;28;20112;-79
2023/03/09 07:19:53;;;;;;;141.98;69.45;;;6.20;99.90;;;;;;5054137;28;20108;-79
2023/03/09 07:22:19;;;;;;;142.02;70.65;;;6.30;99.90;;;;;;5053089;28;20025;-80
2023/03/09 07:24:44;;;;;;;88.55;46.00;;;6.30;99.90;;;;;;5052598;28;20489;-79
2023/03/09 07:27:10;;;;;;;99.18;49.15;;;6.40;99.90;;;;;;5052268;28;20117;-79
2023/03/09 07:29:38;;;;;;;98.45;51.10;;;6.40;99.90;;;;;;5052363;28;20024;-79
2023/03/09 07:32:04;;;;;;;144.35;79.70;;;6.50;99.90;;;;;;5052234;28;20024;-80
2023/03/09 07:34:32;;;;;;;304.90;167.18;;;6.50;99.90;;;;;;5052175;28;20032;-80
2023/03/09 07:36:58;;;;;;;182.77;99.30;;;6.60;99.90;;;;;;5052153;28;20024;-79
2023/03/09 07:39:24;;;;;;;131.57;73.65;;;6.70;99.90;;;;;;5052689;28;20078;-79
2023/03/09 07:41:49;;;;;;;122.65;69.40;;;6.70;99.90;;;;;;5054074;28;20025;-79
2023/03/09 07:44:15;;;;;;;109.20;62.50;;;6.80;99.90;;;;;;5053907;28;20079;-79
2023/03/09 07:46:41;;;;;;;63.72;36.47;;;6.80;99.90;;;;;;5055050;28;20091;-79
2023/03/09 07:49:06;;;;;;;49.75;30.77;;;6.80;99.90;;;;;;5053991;28;20115;-79
2023/03/09 07:51:32;;;;;;;50.97;28.40;;;6.90;99.90;;;;;;5055283;28;20029;-79
2023/03/09 07:53:59;;;;;;;41.63;25.17;;;6.90;99.90;;;;;;5055223;28;20079;-79
2023/03/09 07:56:25;;;;;;;42.72;26.58;;;6.90;99.90;;;;;;5052969;28;20021;-79
2023/03/09 07:58:52;;;;;;;35.90;22.75;;;6.90;99.90;;;;;;5054997;28;20056;-79
2023/03/09 08:01:18;;;;;;;38.83;22.42;;;7.00;99.90;;;;;;5054032;28;20018;-79
2023/03/09 08:03:45;;;;;;;36.33;21.27;;;7.00;99.90;;;;;;5053843;28;20067;-79
2023/03/09 08:06:12;;;;;;;37.05;21.02;;;7.00;99.90;;;;;;5054820;28;20033;-79
2023/03/09 08:08:38;;;;;;;33.97;19.92;;;7.00;99.90;;;;;;5053962;28;20025;-79
2023/03/09 08:11:04;;;;;;;34.38;20.88;;;7.10;99.90;;;;;;5054800;28;20090;-79
2023/03/09 08:13:30;;;;;;;28.65;18.17;;;7.10;99.90;;;;;;5053457;28;20031;-79
2023/03/09 08:16:03;;;;;;;30.48;19.90;;;7.20;99.90;;;;;;5054659;28;20021;-79
2023/03/09 08:18:29;;;;;;;30.88;18.08;;;7.20;99.90;;;;;;5053488;28;20501;-79
2023/03/09 08:21:02;;;;;;;28.95;17.17;;;7.20;99.90;;;;;;5053238;28;20025;-79
2023/03/09 08:23:27;;;;;;;30.30;18.95;;;7.20;99.90;;;;;;5053436;28;20024;-80
2023/03/09 08:25:54;;;;;;;33.58;18.73;;;7.20;99.90;;;;;;5053170;28;20021;-79
2023/03/09 08:28:19;;;;;;;33.58;17.90;;;7.20;99.90;;;;;;5053707;28;20021;-79
2023/03/09 08:30:45;;;;;;;27.20;17.40;;;7.20;99.90;;;;;;5053103;28;20456;-80
2023/03/09 08:33:11;;;;;;;29.75;17.35;;;7.20;99.90;;;;;;5054346;28;20478;-79
2023/03/09 08:35:36;;;;;;;31.35;19.27;;;7.20;99.90;;;;;;5054330;28;20489;-79
2023/03/09 08:38:02;;;;;;;30.23;18.60;;;7.20;99.90;;;;;;5054354;28;20074;-80
2023/03/09 08:40:27;;;;;;;30.90;19.60;;;7.20;99.90;;;;;;5052935;28;20021;-79
2023/03/09 08:42:53;;;;;;;30.45;18.70;;;7.20;99.90;;;;;;5054184;28;20530;-79
2023/03/09 08:45:19;;;;;;;29.95;17.88;;;7.20;99.90;;;;;;5053025;28;20032;-79
2023/03/09 08:47:45;;;;;;;31.23;19.65;;;7.20;99.90;;;;;;5052441;28;20128;-79
2023/03/09 08:50:11;;;;;;;29.02;19.23;;;7.30;99.90;;;;;;5052803;28;20088;-79
2023/03/09 08:52:39;;;;;;;36.60;18.73;;;7.30;99.90;;;;;;5053125;28;20029;-79
2023/03/09 08:55:06;;;;;;;34.42;21.35;;;7.30;99.90;;;;;;5052672;28;20171;-79
2023/03/09 08:57:31;;;;;;;28.33;18.20;;;7.30;99.90;;;;;;5053922;28;20467;-79
2023/03/09 08:59:58;;;;;;;33.08;20.70;;;7.30;99.90;;;;;;5054049;28;20021;-79
2023/03/09 09:02:24;;;;;;;30.20;17.67;;;7.20;99.90;;;;;;5052617;28;20025;-80
2023/03/09 09:04:49;;;;;;;32.30;18.27;;;7.30;99.90;;;;;;5052751;28;20032;-80
2023/03/09 09:07:16;;;;;;;32.40;19.02;;;7.20;99.90;;;;;;5053672;28;20477;-79
2023/03/09 09:09:43;;;;;;;30.05;18.63;;;7.20;99.90;;;;;;5052709;28;20033;-79
2023/03/09 09:12:09;;;;;;;29.92;18.52;;;7.20;99.90;;;;;;5053716;28;20108;-79
2023/03/09 09:14:37;;;;;;;27.77;18.45;;;7.20;99.90;;;;;;5053794;28;20017;-80
2023/03/09 09:17:04;;;;;;;29.73;19.05;;;7.20;99.90;;;;;;5052384;28;20025;-79
2023/03/09 09:19:29;;;;;;;32.58;18.42;;;7.20;99.90;;;;;;5052353;28;20029;-79
2023/03/09 09:21:56;;;;;;;27.83;17.60;;;7.20;99.90;;;;;;5052067;28;20467;-79
2023/03/09 09:24:23;;;;;;;28.58;18.60;;;7.20;99.90;;;;;;5052157;28;20021;-79
2023/03/09 09:26:49;;;;;;;29.33;18.05;;;7.20;99.90;;;;;;5052305;28;20029;-79
2023/03/09 09:29:14;;;;;;;30.30;18.90;;;7.20;99.90;;;;;;5052108;28;20024;-79
2023/03/09 09:31:40;;;;;;;27.42;17.25;;;7.20;99.90;;;;;;5053411;28;20021;-79
2023/03/09 09:34:06;;;;;;;23.88;15.60;;;7.20;99.90;;;;;;5052194;28;20025;-79
2023/03/09 09:36:34;;;;;;;26.92;15.45;;;7.30;99.90;;;;;;5052007;28;20383;-79
2023/03/09 09:39:00;;;;;;;26.98;15.48;;;7.30;99.90;;;;;;5052075;28;20490;-79
2023/03/09 09:41:50;;;;;;;21.63;13.73;;;7.30;99.90;;;;;;5053535;28;20040;-80
2023/03/09 09:44:38;;;;;;;20.70;15.52;;;7.30;99.90;;;;;;5051962;28;20027;-79
2023/03/09 09:47:11;;;;;;;26.30;14.95;;;7.30;99.90;;;;;;5052983;28;20053;-79
2023/03/09 09:49:45;;;;;;;21.88;14.80;;;7.40;99.90;;;;;;5051867;28;20024;-79
2023/03/09 09:52:32;;;;;;;20.67;14.65;;;7.40;99.90;;;;;;5051752;28;20029;-79
2023/03/09 09:55:14;;;;;;;21.92;14.65;;;7.40;99.90;;;;;;5053489;28;20017;-80
2023/03/09 09:57:45;;;;;;;23.17;14.20;;;7.40;99.90;;;;;;5051898;28;20029;-79
2023/03/09 10:00:33;;;;;;;21.52;15.07;;;7.40;99.90;;;;;;5052007;28;20125;-80
2023/03/09 10:03:20;;;;;;;28.30;16.77;;;7.50;99.90;;;;;;5051607;28;20032;-79
2023/03/09 10:06:24;;;;;;;22.40;14.70;;;7.60;99.90;;;;;;5052889;28;20029;-79
2023/03/09 10:08:53;;;;;;;20.13;14.07;;;7.70;99.90;;;;;;5052656;28;20063;-79
2023/03/09 10:11:30;;;;;;;22.55;14.98;;;7.70;99.90;;;;;;5052888;28;20029;-80
2023/03/09 10:14:11;;;;;;;26.33;15.82;;;7.80;99.90;;;;;;5051736;28;20495;-79
2023/03/09 10:16:43;;;;;;;23.20;15.23;;;7.80;99.90;;;;;;5051767;28;20076;-79
2023/03/09 10:19:15;;;;;;;22.20;15.30;;;7.80;99.90;;;;;;5053487;28;20567;-79
2023/03/09 10:21:51;;;;;;;20.23;13.55;;;7.80;99.90;;;;;;5055574;28;20067;-79
2023/03/09 10:24:44;;;;;;;24.77;13.60;;;7.80;99.90;;;;;;5056827;28;20075;-79
2023/03/09 10:27:31;;;;;;;20.67;13.50;;;7.80;99.90;;;;;;5055460;28;20041;-80
2023/03/09 10:30:14;;;;;;;19.85;12.50;;;7.80;99.90;;;;;;5056899;28;20390;-79
2023/03/09 10:33:05;;;;;;;19.55;13.45;;;7.70;99.90;;;;;;5055496;28;20028;-79
2023/03/09 10:35:47;;;;;;;27.83;16.83;;;7.80;99.90;;;;;;5056554;28;20092;-80
2023/03/09 10:38:17;;;;;;;46.58;28.45;;;7.80;99.90;;;;;;5055383;28;20116;-79
2023/03/09 10:40:53;;;;;;;30.45;18.20;;;7.80;99.90;;;;;;5056501;28;20028;-79
2023/03/09 10:43:24;;;;;;;77.90;39.05;;;7.80;99.90;;;;;;5055209;28;20028;-81
2023/03/09 10:45:50;;;;;;;41.63;23.23;;;7.90;99.90;;;;;;5056822;28;20375;-79
2023/03/09 10:48:24;;;;;;;42.22;24.83;;;7.90;99.90;;;;;;5055062;28;20065;-80
2023/03/09 10:51:01;;;;;;;49.42;27.27;;;7.90;99.90;;;;;;5054920;28;20480;-79
2023/03/09 10:53:33;;;;;;;57.00;27.27;;;8.00;99.90;;;;;;5054941;28;20544;-80
2023/03/09 10:56:28;;;;;;;78.25;39.13;;;8.00;99.90;;;;;;5054956;28;20383;-80
2023/03/09 10:59:08;;;;;;;67.15;32.53;;;8.00;99.90;;;;;;5056201;28;20490;-80
2023/03/09 11:01:39;;;;;;;106.57;52.97;;;8.10;99.90;;;;;;5054827;28;20025;-79
2023/03/09 11:04:23;;;;;;;181.60;85.55;;;8.10;99.90;;;;;;5054855;28;20029;-80
2023/03/09 11:07:22;;;;;;;90.63;41.30;;;8.10;99.90;;;;;;5054670;28;20044;-80
2023/03/09 11:09:49;;;;;;;105.25;46.05;;;8.10;99.90;;;;;;5054762;28;20067;-79
2023/03/09 11:12:20;;;;;;;72.78;34.75;;;8.00;99.90;;;;;;5054593;28;20017;-80
2023/03/09 11:15:00;;;;;;;99.05;52.30;;;7.90;99.90;;;;;;5054634;28;20082;-79
2023/03/09 11:17:37;;;;;;;52.78;27.77;;;7.90;99.90;;;;;;5054550;28;20040;-80
2023/03/09 11:20:21;;;;;;;98.20;49.88;;;8.00;99.90;;;;;;5056235;28;20462;-80
2023/03/09 11:23:09;;;;;;;15.77;9.43;;;8.10;99.90;;;;;;5055987;28;20370;-80
2023/03/09 11:25:38;;;;;;;67.15;26.83;;;8.00;99.90;;;;;;5048924;28;20076;-79
2023/03/09 11:28:20;;;;;;;19.92;11.82;;;8.00;99.90;;;;;;5054356;28;20406;-80
2023/03/09 11:30:48;;;;;;;76.03;33.63;;;8.00;99.90;;;;;;5054427;28;20135;-79
2023/03/09 11:33:17;;;;;;;121.47;52.33;;;7.90;99.90;;;;;;5071031;28;20021;-79
2023/03/09 11:35:46;;;;;;;47.17;16.73;;;7.80;99.90;;;;;;5054449;28;20107;-79
2023/03/09 11:38:14;;;;;;;26.25;11.30;;;7.80;99.90;;;;;;5054197;28;20032;-79
2023/03/09 11:40:41;;;;;;;20.38;10.65;;;7.80;99.90;;;;;;5054174;28;20051;-79
2023/03/09 11:43:21;;;;;;;33.72;15.73;;;7.90;99.90;;;;;;5054381;28;20021;-79
2023/03/09 11:45:47;;;;;;;68.78;30.45;;;7.80;99.90;;;;;;5053886;28;20021;-79
2023/03/09 11:48:27;;;;;;;74.57;21.83;;;7.90;99.90;;;;;;5055410;28;20053;-79
2023/03/09 11:50:56;;;;;;;23.95;10.05;;;7.90;99.90;;;;;;5055271;28;20074;-80
2023/03/09 11:53:35;;;;;;;28.83;12.13;;;7.90;99.90;;;;;;5053859;28;20028;-80
2023/03/09 11:56:32;;;;;;;22.38;11.68;;;7.90;99.90;;;;;;5055237;28;20021;-79
2023/03/09 11:59:06;;;;;;;23.23;14.93;;;7.90;99.90;;;;;;5053875;28;20112;-79
2023/03/09 12:01:52;;;;;;;44.22;17.50;;;7.90;99.90;;;;;;5055057;28;20049;-79
2023/03/09 12:04:18;;;;;;;74.55;36.63;;;7.80;99.90;;;;;;5053683;28;20471;-80
2023/03/09 12:06:51;;;;;;;142.93;46.72;;;7.70;99.90;;;;;;5053502;28;20029;-79
2023/03/09 12:09:44;;;;;;;;;;;7.60;99.90;;;;;;5055396;28;20032;-79
2023/03/09 12:12:19;;;;;;;82.22;35.80;;;7.60;99.90;;;;;;5053610;28;19913;-79
2023/03/09 12:14:51;;;;;;;103.85;47.10;;;7.60;99.90;;;;;;5053453;28;20021;-79
2023/03/09 12:17:21;;;;;;;48.47;22.48;;;7.50;99.90;;;;;;5053476;28;20013;-79
2023/03/09 12:19:51;;;;;;;60.72;33.22;;;7.50;99.90;;;;;;5054699;28;20035;-79
2023/03/09 12:22:23;;;;;;;73.05;37.47;;;7.50;99.90;;;;;;5054005;28;20025;-79
2023/03/09 12:25:01;;;;;;;85.68;46.25;;;7.40;99.90;;;;;;5054659;28;20028;-80
2023/03/09 12:27:29;;;;;;;84.45;41.35;;;7.40;99.90;;;;;;5053686;28;20052;-80
2023/03/09 12:30:18;;;;;;;56.25;30.23;;;7.40;99.90;;;;;;5054612;28;20021;-79
2023/03/09 12:32:43;;;;;;;53.63;26.23;;;7.40;99.90;;;;;;5053102;28;20013;-79
2023/03/09 12:35:21;;;;;;;38.80;25.65;;;7.40;99.90;;;;;;5053353;28;20348;-80
2023/03/09 12:38:05;;;;;;;46.17;27.13;;;7.40;99.90;;;;;;5053073;28;20024;-79
2023/03/09 12:40:36;;;;;;;72.65;40.25;;;7.30;99.90;;;;;;5054537;28;20028;-79
2023/03/09 12:43:13;;;;;;;55.22;29.85;;;7.40;99.90;;;;;;5053987;28;20028;-79
2023/03/09 12:45:40;;;;;;;56.05;30.35;;;7.40;99.90;;;;;;5054265;28;20470;-79